logo
Search for airport 
image banner adimage banner adimage banner ad
image banner ad

YCLOV - Cloverdale

Located in Victoria Valley, Australia

ICAO - , IATA -

Data provided by Airmate  

General information

Coordinates: S42°17'40" E146°39'52"
Elevation is 2145 feet MSL.
Magnetic variation is 15° East
View others Airports in Tasmania

Operational data

Special qualification required
Current time UTC:
Current local time:
Weather at : - ( 0 km )
METAR: PPIZ 131656Z AUTO 20004KT 3SM -SN BR FEW022 BKN034 OVC043 M15/M17 A2979 RMK AO2 SLP092 P0001 T11501172 FZRANO
View NOTAMs / SUP AIP / TFR affecting this airport [VIEW]
Communications frequencies: [VIEW]

Runways:

RWY identifierQFULength (ft)Width (ft)SurfaceLDA (ft)
10119°1889142GRAS
28299°1889142GRAS

Airport contact information

Address: Victoria Valley Australia

Satellite view of YCLOV